sensor_id;sensor_type;location;lat;lon;timestamp;temperature;humidity
14727;DHT22;7454;51.256;8.176;2023-01-24T00:02:20;1.90;77.80
14727;DHT22;7454;51.256;8.176;2023-01-24T00:04:45;1.90;78.00
14727;DHT22;7454;51.256;8.176;2023-01-24T00:07:12;1.90;77.90
14727;DHT22;7454;51.256;8.176;2023-01-24T00:09:37;1.90;77.90
14727;DHT22;7454;51.256;8.176;2023-01-24T00:12:03;1.80;77.70
14727;DHT22;7454;51.256;8.176;2023-01-24T00:14:29;1.80;77.70
14727;DHT22;7454;51.256;8.176;2023-01-24T00:16:54;1.70;77.70
14727;DHT22;7454;51.256;8.176;2023-01-24T00:19:20;1.80;77.80
14727;DHT22;7454;51.256;8.176;2023-01-24T00:21:45;1.80;77.80
14727;DHT22;7454;51.256;8.176;2023-01-24T00:24:11;1.70;77.70
14727;DHT22;7454;51.256;8.176;2023-01-24T00:26:37;1.70;77.70
14727;DHT22;7454;51.256;8.176;2023-01-24T00:29:02;1.70;77.70
14727;DHT22;7454;51.256;8.176;2023-01-24T00:31:28;1.70;77.70
14727;DHT22;7454;51.256;8.176;2023-01-24T00:33:54;1.70;77.80
14727;DHT22;7454;51.256;8.176;2023-01-24T00:36:19;1.70;77.80
14727;DHT22;7454;51.256;8.176;2023-01-24T00:38:45;1.70;77.80
14727;DHT22;7454;51.256;8.176;2023-01-24T00:41:11;1.60;77.60
14727;DHT22;7454;51.256;8.176;2023-01-24T00:43:36;1.60;77.70
14727;DHT22;7454;51.256;8.176;2023-01-24T00:46:06;1.60;77.70
14727;DHT22;7454;51.256;8.176;2023-01-24T00:48:32;1.50;77.70
14727;DHT22;7454;51.256;8.176;2023-01-24T00:50:58;1.50;77.70
14727;DHT22;7454;51.256;8.176;2023-01-24T00:53:24;1.70;77.80
14727;DHT22;7454;51.256;8.176;2023-01-24T00:55:51;1.50;77.60
14727;DHT22;7454;51.256;8.176;2023-01-24T00:58:17;1.50;77.60
14727;DHT22;7454;51.256;8.176;2023-01-24T01:00:43;1.50;77.60
14727;DHT22;7454;51.256;8.176;2023-01-24T01:03:14;1.40;77.60
14727;DHT22;7454;51.256;8.176;2023-01-24T01:05:43;1.40;77.80
14727;DHT22;7454;51.256;8.176;2023-01-24T01:08:09;1.40;77.80
14727;DHT22;7454;51.256;8.176;2023-01-24T01:10:35;1.30;77.70
14727;DHT22;7454;51.256;8.176;2023-01-24T01:13:01;1.30;77.80
14727;DHT22;7454;51.256;8.176;2023-01-24T01:15:28;1.30;77.80
14727;DHT22;7454;51.256;8.176;2023-01-24T01:17:54;1.30;77.70
14727;DHT22;7454;51.256;8.176;2023-01-24T01:20:19;1.30;77.80
14727;DHT22;7454;51.256;8.176;2023-01-24T01:22:45;1.30;77.70
14727;DHT22;7454;51.256;8.176;2023-01-24T01:25:11;1.20;77.70
14727;DHT22;7454;51.256;8.176;2023-01-24T01:27:36;1.20;77.70
14727;DHT22;7454;51.256;8.176;2023-01-24T01:30:02;1.20;77.70
14727;DHT22;7454;51.256;8.176;2023-01-24T01:32:28;1.20;77.80
14727;DHT22;7454;51.256;8.176;2023-01-24T01:34:54;1.20;77.80
14727;DHT22;7454;51.256;8.176;2023-01-24T01:37:19;1.10;77.80
14727;DHT22;7454;51.256;8.176;2023-01-24T01:39:45;1.20;77.90
14727;DHT22;7454;51.256;8.176;2023-01-24T01:42:11;1.10;77.90
14727;DHT22;7454;51.256;8.176;2023-01-24T01:44:38;1.10;77.90
14727;DHT22;7454;51.256;8.176;2023-01-24T01:47:05;1.10;77.80
14727;DHT22;7454;51.256;8.176;2023-01-24T01:49:56;1.10;77.80
14727;DHT22;7454;51.256;8.176;2023-01-24T01:52:27;1.00;77.90
14727;DHT22;7454;51.256;8.176;2023-01-24T01:54:57;1.10;77.80
14727;DHT22;7454;51.256;8.176;2023-01-24T01:57:26;1.10;77.80
14727;DHT22;7454;51.256;8.176;2023-01-24T02:00:02;1.10;77.80
14727;DHT22;7454;51.256;8.176;2023-01-24T02:02:39;1.10;77.70
14727;DHT22;7454;51.256;8.176;2023-01-24T02:05:06;1.00;77.60
14727;DHT22;7454;51.256;8.176;2023-01-24T02:07:39;1.00;77.70
14727;DHT22;7454;51.256;8.176;2023-01-24T02:10:09;1.00;77.80
14727;DHT22;7454;51.256;8.176;2023-01-24T02:12:37;1.00;77.80
14727;DHT22;7454;51.256;8.176;2023-01-24T02:15:09;0.90;77.80
14727;DHT22;7454;51.256;8.176;2023-01-24T02:17:55;0.90;77.70
14727;DHT22;7454;51.256;8.176;2023-01-24T02:22:58;0.80;77.60
14727;DHT22;7454;51.256;8.176;2023-01-24T02:25:37;0.90;77.70
14727;DHT22;7454;51.256;8.176;2023-01-24T02:28:06;0.80;77.70
14727;DHT22;7454;51.256;8.176;2023-01-24T02:30:33;0.80;77.70
14727;DHT22;7454;51.256;8.176;2023-01-24T02:33:08;0.80;77.60
14727;DHT22;7454;51.256;8.176;2023-01-24T02:35:39;0.70;77.60
14727;DHT22;7454;51.256;8.176;2023-01-24T02:38:05;0.70;77.60
14727;DHT22;7454;51.256;8.176;2023-01-24T02:40:36;0.70;77.60
14727;DHT22;7454;51.256;8.176;2023-01-24T02:43:03;0.60;77.60
14727;DHT22;7454;51.256;8.176;2023-01-24T02:45:31;0.60;77.50
14727;DHT22;7454;51.256;8.176;2023-01-24T02:47:58;0.50;77.50
14727;DHT22;7454;51.256;8.176;2023-01-24T02:50:26;0.50;77.60
14727;DHT22;7454;51.256;8.176;2023-01-24T02:52:54;0.40;77.70
14727;DHT22;7454;51.256;8.176;2023-01-24T02:55:39;0.40;77.70
14727;DHT22;7454;51.256;8.176;2023-01-24T02:58:26;0.40;77.70
14727;DHT22;7454;51.256;8.176;2023-01-24T03:00:53;0.30;77.60
14727;DHT22;7454;51.256;8.176;2023-01-24T03:03:19;0.30;77.70
14727;DHT22;7454;51.256;8.176;2023-01-24T03:05:45;0.30;77.70
14727;DHT22;7454;51.256;8.176;2023-01-24T03:08:31;0.30;77.60
14727;DHT22;7454;51.256;8.176;2023-01-24T03:10:59;0.30;77.70
14727;DHT22;7454;51.256;8.176;2023-01-24T03:13:28;0.30;77.70
14727;DHT22;7454;51.256;8.176;2023-01-24T03:16:13;0.20;77.60
14727;DHT22;7454;51.256;8.176;2023-01-24T03:18:58;0.20;77.60
14727;DHT22;7454;51.256;8.176;2023-01-24T03:21:42;0.10;77.60
14727;DHT22;7454;51.256;8.176;2023-01-24T03:24:27;0.10;77.50
14727;DHT22;7454;51.256;8.176;2023-01-24T03:27:12;0.10;77.60
14727;DHT22;7454;51.256;8.176;2023-01-24T03:29:57;0.10;77.60
14727;DHT22;7454;51.256;8.176;2023-01-24T03:32:42;0.00;77.60
14727;DHT22;7454;51.256;8.176;2023-01-24T03:35:27;0.00;77.60
14727;DHT22;7454;51.256;8.176;2023-01-24T03:37:53;0.10;77.60
14727;DHT22;7454;51.256;8.176;2023-01-24T03:40:38;0.20;77.70
14727;DHT22;7454;51.256;8.176;2023-01-24T03:43:04;-0.10;77.70
14727;DHT22;7454;51.256;8.176;2023-01-24T03:45:37;-0.10;77.70
14727;DHT22;7454;51.256;8.176;2023-01-24T03:48:06;-0.10;77.70
14727;DHT22;7454;51.256;8.176;2023-01-24T03:50:40;-0.10;77.60
14727;DHT22;7454;51.256;8.176;2023-01-24T03:53:30;-0.20;77.50
14727;DHT22;7454;51.256;8.176;2023-01-24T03:55:57;-0.20;77.50
14727;DHT22;7454;51.256;8.176;2023-01-24T03:58:26;-0.20;77.60
14727;DHT22;7454;51.256;8.176;2023-01-24T04:00:53;-0.30;77.60
14727;DHT22;7454;51.256;8.176;2023-01-24T04:03:44;-0.30;77.70
14727;DHT22;7454;51.256;8.176;2023-01-24T04:06:10;-0.20;77.70
14727;DHT22;7454;51.256;8.176;2023-01-24T04:08:36;-0.30;77.60
14727;DHT22;7454;51.256;8.176;2023-01-24T04:11:02;-0.30;77.70
14727;DHT22;7454;51.256;8.176;2023-01-24T04:13:29;-0.30;77.70
14727;DHT22;7454;51.256;8.176;2023-01-24T04:15:56;-0.30;77.60
14727;DHT22;7454;51.256;8.176;2023-01-24T04:18:49;-0.30;77.60
14727;DHT22;7454;51.256;8.176;2023-01-24T04:21:15;-0.30;77.50
14727;DHT22;7454;51.256;8.176;2023-01-24T04:23:40;-0.40;77.50
14727;DHT22;7454;51.256;8.176;2023-01-24T04:26:06;-0.40;77.40
14727;DHT22;7454;51.256;8.176;2023-01-24T04:28:33;-0.50;77.50
14727;DHT22;7454;51.256;8.176;2023-01-24T04:31:01;-0.50;77.40
14727;DHT22;7454;51.256;8.176;2023-01-24T04:33:50;-0.50;77.30
14727;DHT22;7454;51.256;8.176;2023-01-24T04:36:16;-0.50;77.40
14727;DHT22;7454;51.256;8.176;2023-01-24T04:38:42;-0.60;77.30
14727;DHT22;7454;51.256;8.176;2023-01-24T04:41:15;-0.70;77.20
14727;DHT22;7454;51.256;8.176;2023-01-24T04:43:42;-0.70;77.30
14727;DHT22;7454;51.256;8.176;2023-01-24T04:46:09;-0.80;77.20
14727;DHT22;7454;51.256;8.176;2023-01-24T04:48:54;-0.80;77.30
14727;DHT22;7454;51.256;8.176;2023-01-24T04:51:24;-0.80;77.30
14727;DHT22;7454;51.256;8.176;2023-01-24T04:53:51;-0.80;77.30
14727;DHT22;7454;51.256;8.176;2023-01-24T04:56:20;-0.80;77.30
14727;DHT22;7454;51.256;8.176;2023-01-24T04:58:46;-0.80;77.40
14727;DHT22;7454;51.256;8.176;2023-01-24T05:01:12;-0.80;77.20
14727;DHT22;7454;51.256;8.176;2023-01-24T05:03:49;-0.90;77.00
14727;DHT22;7454;51.256;8.176;2023-01-24T05:06:15;-0.90;77.10
14727;DHT22;7454;51.256;8.176;2023-01-24T05:08:41;-0.90;77.10
14727;DHT22;7454;51.256;8.176;2023-01-24T05:11:07;-1.00;76.90
14727;DHT22;7454;51.256;8.176;2023-01-24T05:13:40;-1.10;77.00
14727;DHT22;7454;51.256;8.176;2023-01-24T05:16:06;-1.10;77.00
14727;DHT22;7454;51.256;8.176;2023-01-24T05:18:32;-1.10;77.10
14727;DHT22;7454;51.256;8.176;2023-01-24T05:21:03;-1.10;77.00
14727;DHT22;7454;51.256;8.176;2023-01-24T05:23:30;-1.10;77.00
14727;DHT22;7454;51.256;8.176;2023-01-24T05:26:00;-1.20;76.90
14727;DHT22;7454;51.256;8.176;2023-01-24T05:28:28;-1.20;77.00
14727;DHT22;7454;51.256;8.176;2023-01-24T05:30:59;-1.20;77.00
14727;DHT22;7454;51.256;8.176;2023-01-24T05:33:29;-1.20;77.00
14727;DHT22;7454;51.256;8.176;2023-01-24T05:35:56;-1.20;76.90
14727;DHT22;7454;51.256;8.176;2023-01-24T05:38:23;-1.30;76.70
14727;DHT22;7454;51.256;8.176;2023-01-24T05:40:49;-1.30;76.90
14727;DHT22;7454;51.256;8.176;2023-01-24T05:43:16;-1.30;77.00
14727;DHT22;7454;51.256;8.176;2023-01-24T05:45:42;-1.30;77.10
14727;DHT22;7454;51.256;8.176;2023-01-24T05:48:07;-1.30;77.10
14727;DHT22;7454;51.256;8.176;2023-01-24T05:50:35;-1.20;77.10
14727;DHT22;7454;51.256;8.176;2023-01-24T05:53:12;-1.20;77.10
14727;DHT22;7454;51.256;8.176;2023-01-24T05:55:38;-1.30;76.80
14727;DHT22;7454;51.256;8.176;2023-01-24T05:58:05;-1.30;76.80
14727;DHT22;7454;51.256;8.176;2023-01-24T06:00:51;-1.40;76.70
14727;DHT22;7454;51.256;8.176;2023-01-24T06:03:36;-1.50;76.50
14727;DHT22;7454;51.256;8.176;2023-01-24T06:06:02;-1.60;76.50
14727;DHT22;7454;51.256;8.176;2023-01-24T06:08:29;-1.60;76.50
14727;DHT22;7454;51.256;8.176;2023-01-24T06:10:54;-1.60;76.60
14727;DHT22;7454;51.256;8.176;2023-01-24T06:13:22;-1.70;76.40
14727;DHT22;7454;51.256;8.176;2023-01-24T06:15:47;-1.80;76.40
14727;DHT22;7454;51.256;8.176;2023-01-24T06:18:14;-1.80;76.40
14727;DHT22;7454;51.256;8.176;2023-01-24T06:20:42;-1.90;76.40
14727;DHT22;7454;51.256;8.176;2023-01-24T06:23:10;-1.90;76.40
14727;DHT22;7454;51.256;8.176;2023-01-24T06:25:42;-1.90;76.40
14727;DHT22;7454;51.256;8.176;2023-01-24T06:28:07;-1.90;76.40
14727;DHT22;7454;51.256;8.176;2023-01-24T06:30:34;-1.90;76.40
14727;DHT22;7454;51.256;8.176;2023-01-24T06:38:46;-2.00;76.50
14727;DHT22;7454;51.256;8.176;2023-01-24T06:41:16;-2.00;76.50
14727;DHT22;7454;51.256;8.176;2023-01-24T06:43:42;-1.90;76.40
14727;DHT22;7454;51.256;8.176;2023-01-24T06:46:10;-2.00;76.30
14727;DHT22;7454;51.256;8.176;2023-01-24T06:48:36;-2.10;76.10
14727;DHT22;7454;51.256;8.176;2023-01-24T06:51:02;-2.10;76.20
14727;DHT22;7454;51.256;8.176;2023-01-24T06:53:28;-2.10;76.10
14727;DHT22;7454;51.256;8.176;2023-01-24T06:55:53;-2.20;76.10
14727;DHT22;7454;51.256;8.176;2023-01-24T06:58:19;-2.10;76.40
14727;DHT22;7454;51.256;8.176;2023-01-24T07:00:44;-2.20;76.10
14727;DHT22;7454;51.256;8.176;2023-01-24T07:03:10;-2.20;76.10
14727;DHT22;7454;51.256;8.176;2023-01-24T07:05:36;-2.30;76.00
14727;DHT22;7454;51.256;8.176;2023-01-24T07:08:03;-2.30;76.00
14727;DHT22;7454;51.256;8.176;2023-01-24T07:10:29;-2.40;76.10
14727;DHT22;7454;51.256;8.176;2023-01-24T07:12:55;-2.40;76.10
14727;DHT22;7454;51.256;8.176;2023-01-24T07:15:21;-2.40;76.00
14727;DHT22;7454;51.256;8.176;2023-01-24T07:17:47;-2.40;76.00
14727;DHT22;7454;51.256;8.176;2023-01-24T07:20:12;-2.40;76.20
14727;DHT22;7454;51.256;8.176;2023-01-24T07:22:39;-2.40;76.40
14727;DHT22;7454;51.256;8.176;2023-01-24T07:25:15;-2.40;76.20
14727;DHT22;7454;51.256;8.176;2023-01-24T07:27:43;-2.40;76.10
14727;DHT22;7454;51.256;8.176;2023-01-24T07:30:09;-2.60;76.10
14727;DHT22;7454;51.256;8.176;2023-01-24T07:32:36;-2.50;76.00
14727;DHT22;7454;51.256;8.176;2023-01-24T07:35:02;-2.50;76.00
14727;DHT22;7454;51.256;8.176;2023-01-24T07:37:28;-2.40;76.00
14727;DHT22;7454;51.256;8.176;2023-01-24T07:39:54;-2.50;75.90
14727;DHT22;7454;51.256;8.176;2023-01-24T07:42:20;-2.50;76.00
14727;DHT22;7454;51.256;8.176;2023-01-24T07:44:46;-2.50;75.70
14727;DHT22;7454;51.256;8.176;2023-01-24T07:47:12;-2.60;75.80
14727;DHT22;7454;51.256;8.176;2023-01-24T07:49:38;-2.60;75.80
14727;DHT22;7454;51.256;8.176;2023-01-24T07:52:04;-2.60;75.80
14727;DHT22;7454;51.256;8.176;2023-01-24T07:54:29;-2.60;75.80
14727;DHT22;7454;51.256;8.176;2023-01-24T07:56:55;-2.60;75.80
14727;DHT22;7454;51.256;8.176;2023-01-24T07:59:21;-2.60;75.80
14727;DHT22;7454;51.256;8.176;2023-01-24T08:01:47;-2.60;75.80
14727;DHT22;7454;51.256;8.176;2023-01-24T08:04:12;-2.60;75.80
14727;DHT22;7454;51.256;8.176;2023-01-24T08:06:38;-2.60;75.70
14727;DHT22;7454;51.256;8.176;2023-01-24T08:09:24;-2.60;75.70
14727;DHT22;7454;51.256;8.176;2023-01-24T08:11:52;-2.70;75.60
14727;DHT22;7454;51.256;8.176;2023-01-24T08:14:17;-2.70;75.70
14727;DHT22;7454;51.256;8.176;2023-01-24T08:16:43;-2.60;75.90
14727;DHT22;7454;51.256;8.176;2023-01-24T08:19:08;-2.60;75.80
14727;DHT22;7454;51.256;8.176;2023-01-24T08:21:34;-2.50;75.90
14727;DHT22;7454;51.256;8.176;2023-01-24T08:24:00;-2.50;76.10
14727;DHT22;7454;51.256;8.176;2023-01-24T08:26:25;-2.50;75.80
14727;DHT22;7454;51.256;8.176;2023-01-24T08:28:51;-2.50;75.70
14727;DHT22;7454;51.256;8.176;2023-01-24T08:31:17;-2.60;75.70
14727;DHT22;7454;51.256;8.176;2023-01-24T08:33:44;-2.70;75.60
14727;DHT22;7454;51.256;8.176;2023-01-24T08:36:09;-2.60;75.80
14727;DHT22;7454;51.256;8.176;2023-01-24T08:38:35;-2.70;75.70
14727;DHT22;7454;51.256;8.176;2023-01-24T08:41:04;-2.70;75.90
14727;DHT22;7454;51.256;8.176;2023-01-24T08:43:30;-2.70;75.80
14727;DHT22;7454;51.256;8.176;2023-01-24T08:45:56;-2.70;75.90
14727;DHT22;7454;51.256;8.176;2023-01-24T08:48:21;-2.60;76.00
14727;DHT22;7454;51.256;8.176;2023-01-24T08:50:47;-2.60;75.90
14727;DHT22;7454;51.256;8.176;2023-01-24T08:53:13;-2.60;76.00
14727;DHT22;7454;51.256;8.176;2023-01-24T08:55:40;-2.60;75.80
14727;DHT22;7454;51.256;8.176;2023-01-24T08:58:05;-2.60;75.90
14727;DHT22;7454;51.256;8.176;2023-01-24T09:00:31;-2.60;75.80
14727;DHT22;7454;51.256;8.176;2023-01-24T09:02:57;-2.50;76.00
14727;DHT22;7454;51.256;8.176;2023-01-24T09:05:27;-2.40;76.00
14727;DHT22;7454;51.256;8.176;2023-01-24T09:07:54;-2.40;76.00
14727;DHT22;7454;51.256;8.176;2023-01-24T09:10:19;-2.40;76.00
14727;DHT22;7454;51.256;8.176;2023-01-24T09:12:45;-2.30;76.10
14727;DHT22;7454;51.256;8.176;2023-01-24T09:15:10;-2.30;76.00
14727;DHT22;7454;51.256;8.176;2023-01-24T09:17:36;-2.30;76.10
14727;DHT22;7454;51.256;8.176;2023-01-24T09:20:03;-2.20;76.20
14727;DHT22;7454;51.256;8.176;2023-01-24T09:22:30;-2.20;76.20
14727;DHT22;7454;51.256;8.176;2023-01-24T09:24:57;-2.10;76.30
14727;DHT22;7454;51.256;8.176;2023-01-24T09:27:22;-2.20;76.20
14727;DHT22;7454;51.256;8.176;2023-01-24T09:29:48;-2.10;76.30
14727;DHT22;7454;51.256;8.176;2023-01-24T09:32:13;-2.10;76.20
14727;DHT22;7454;51.256;8.176;2023-01-24T09:34:39;-2.10;76.30
14727;DHT22;7454;51.256;8.176;2023-01-24T09:37:18;-2.00;76.40
14727;DHT22;7454;51.256;8.176;2023-01-24T09:39:44;-2.00;76.30
14727;DHT22;7454;51.256;8.176;2023-01-24T09:42:25;-2.00;76.30
14727;DHT22;7454;51.256;8.176;2023-01-24T09:47:50;-1.90;76.60
14727;DHT22;7454;51.256;8.176;2023-01-24T09:50:34;-1.90;76.60
14727;DHT22;7454;51.256;8.176;2023-01-24T09:53:04;-1.80;76.60
14727;DHT22;7454;51.256;8.176;2023-01-24T09:55:31;-1.60;76.70
14727;DHT22;7454;51.256;8.176;2023-01-24T10:00:33;-1.50;76.90
14727;DHT22;7454;51.256;8.176;2023-01-24T10:03:01;-1.40;76.80
14727;DHT22;7454;51.256;8.176;2023-01-24T10:05:39;-1.30;76.90
14727;DHT22;7454;51.256;8.176;2023-01-24T10:08:17;-1.30;76.80
14727;DHT22;7454;51.256;8.176;2023-01-24T10:10:59;-1.20;76.80
14727;DHT22;7454;51.256;8.176;2023-01-24T10:17:02;-1.10;76.90
14727;DHT22;7454;51.256;8.176;2023-01-24T10:24:55;-1.00;76.90
14727;DHT22;7454;51.256;8.176;2023-01-24T10:27:28;-1.00;76.90
14727;DHT22;7454;51.256;8.176;2023-01-24T10:30:12;-0.90;76.90
14727;DHT22;7454;51.256;8.176;2023-01-24T10:32:40;-0.90;76.90
14727;DHT22;7454;51.256;8.176;2023-01-24T10:35:46;-0.90;76.80
14727;DHT22;7454;51.256;8.176;2023-01-24T10:38:05;-0.90;76.80
14727;DHT22;7454;51.256;8.176;2023-01-24T10:40:34;-0.80;77.10
14727;DHT22;7454;51.256;8.176;2023-01-24T10:43:17;-0.70;77.00
14727;DHT22;7454;51.256;8.176;2023-01-24T10:45:49;-0.60;76.90
14727;DHT22;7454;51.256;8.176;2023-01-24T10:48:27;-0.60;77.00
14727;DHT22;7454;51.256;8.176;2023-01-24T10:54:02;-0.40;77.20
14727;DHT22;7454;51.256;8.176;2023-01-24T10:56:28;-0.30;77.30
14727;DHT22;7454;51.256;8.176;2023-01-24T10:58:55;-0.20;77.10
14727;DHT22;7454;51.256;8.176;2023-01-24T11:01:35;-0.10;77.10
14727;DHT22;7454;51.256;8.176;2023-01-24T11:04:13;0.00;77.10
14727;DHT22;7454;51.256;8.176;2023-01-24T11:06:42;0.00;77.10
14727;DHT22;7454;51.256;8.176;2023-01-24T11:09:12;0.10;77.00
14727;DHT22;7454;51.256;8.176;2023-01-24T11:11:53;0.20;77.00
14727;DHT22;7454;51.256;8.176;2023-01-24T11:14:20;0.20;77.00
14727;DHT22;7454;51.256;8.176;2023-01-24T11:16:48;0.30;77.10
14727;DHT22;7454;51.256;8.176;2023-01-24T11:19:32;0.40;77.20
14727;DHT22;7454;51.256;8.176;2023-01-24T11:22:00;0.50;77.30
14727;DHT22;7454;51.256;8.176;2023-01-24T11:24:28;0.60;77.20
14727;DHT22;7454;51.256;8.176;2023-01-24T11:29:23;0.70;77.10
14727;DHT22;7454;51.256;8.176;2023-01-24T11:32:15;0.80;77.20
14727;DHT22;7454;51.256;8.176;2023-01-24T11:34:59;0.80;77.10
14727;DHT22;7454;51.256;8.176;2023-01-24T11:42:38;0.90;77.00
14727;DHT22;7454;51.256;8.176;2023-01-24T11:47:40;1.00;77.10
14727;DHT22;7454;51.256;8.176;2023-01-24T12:01:57;1.30;77.20
14727;DHT22;7454;51.256;8.176;2023-01-24T12:07:22;1.50;77.20
14727;DHT22;7454;51.256;8.176;2023-01-24T12:12:49;1.50;77.10
14727;DHT22;7454;51.256;8.176;2023-01-24T12:23:18;1.70;77.10
14727;DHT22;7454;51.256;8.176;2023-01-24T12:25:46;1.70;76.90
14727;DHT22;7454;51.256;8.176;2023-01-24T12:28:13;1.80;77.00
14727;DHT22;7454;51.256;8.176;2023-01-24T12:33:12;1.90;77.20
14727;DHT22;7454;51.256;8.176;2023-01-24T12:35:44;1.90;76.90
14727;DHT22;7454;51.256;8.176;2023-01-24T12:38:21;1.90;76.90
14727;DHT22;7454;51.256;8.176;2023-01-24T12:46:36;2.00;76.90
14727;DHT22;7454;51.256;8.176;2023-01-24T12:51:51;2.00;76.90
14727;DHT22;7454;51.256;8.176;2023-01-24T12:54:21;2.00;76.80
14727;DHT22;7454;51.256;8.176;2023-01-24T12:57:00;2.00;76.80
14727;DHT22;7454;51.256;8.176;2023-01-24T12:59:41;2.00;76.80
14727;DHT22;7454;51.256;8.176;2023-01-24T13:02:23;2.00;76.80
14727;DHT22;7454;51.256;8.176;2023-01-24T13:05:17;2.10;76.90
14727;DHT22;7454;51.256;8.176;2023-01-24T13:10:57;2.20;77.00
14727;DHT22;7454;51.256;8.176;2023-01-24T13:13:31;2.20;76.90
14727;DHT22;7454;51.256;8.176;2023-01-24T13:16:20;2.30;76.80
14727;DHT22;7454;51.256;8.176;2023-01-24T13:21:33;2.30;76.90
14727;DHT22;7454;51.256;8.176;2023-01-24T13:29:44;2.40;76.90
14727;DHT22;7454;51.256;8.176;2023-01-24T13:32:17;2.40;76.80
14727;DHT22;7454;51.256;8.176;2023-01-24T13:34:48;2.50;76.80
14727;DHT22;7454;51.256;8.176;2023-01-24T13:37:17;2.50;77.10
14727;DHT22;7454;51.256;8.176;2023-01-24T13:40:04;2.50;76.90
14727;DHT22;7454;51.256;8.176;2023-01-24T13:42:34;2.50;76.90
14727;DHT22;7454;51.256;8.176;2023-01-24T13:48:03;2.50;76.90
14727;DHT22;7454;51.256;8.176;2023-01-24T13:54:05;2.50;76.80
14727;DHT22;7454;51.256;8.176;2023-01-24T13:59:33;2.40;76.80
14727;DHT22;7454;51.256;8.176;2023-01-24T14:02:02;2.50;76.80
14727;DHT22;7454;51.256;8.176;2023-01-24T14:04:41;2.50;76.90
14727;DHT22;7454;51.256;8.176;2023-01-24T14:07:17;2.50;76.90
14727;DHT22;7454;51.256;8.176;2023-01-24T14:09:44;2.50;76.80
14727;DHT22;7454;51.256;8.176;2023-01-24T14:12:14;2.40;76.80
14727;DHT22;7454;51.256;8.176;2023-01-24T14:14:58;2.50;77.00
14727;DHT22;7454;51.256;8.176;2023-01-24T14:17:26;2.50;76.80
14727;DHT22;7454;51.256;8.176;2023-01-24T14:20:01;2.40;76.70
14727;DHT22;7454;51.256;8.176;2023-01-24T14:22:30;2.40;77.00
14727;DHT22;7454;51.256;8.176;2023-01-24T14:25:03;2.40;77.00
14727;DHT22;7454;51.256;8.176;2023-01-24T14:27:47;2.40;76.90
14727;DHT22;7454;51.256;8.176;2023-01-24T14:37:54;2.40;77.10
14727;DHT22;7454;51.256;8.176;2023-01-24T14:40:40;2.40;77.00
14727;DHT22;7454;51.256;8.176;2023-01-24T14:43:06;2.40;77.10
14727;DHT22;7454;51.256;8.176;2023-01-24T14:45:32;2.40;77.00
14727;DHT22;7454;51.256;8.176;2023-01-24T14:47:58;2.30;77.10
14727;DHT22;7454;51.256;8.176;2023-01-24T14:50:28;2.30;77.10
14727;DHT22;7454;51.256;8.176;2023-01-24T14:53:02;2.30;77.00
14727;DHT22;7454;51.256;8.176;2023-01-24T14:55:46;2.30;77.00
14727;DHT22;7454;51.256;8.176;2023-01-24T14:58:33;2.20;76.90
14727;DHT22;7454;51.256;8.176;2023-01-24T15:00:59;2.20;77.00
14727;DHT22;7454;51.256;8.176;2023-01-24T15:03:26;2.20;77.10
14727;DHT22;7454;51.256;8.176;2023-01-24T15:05:58;2.20;77.20
14727;DHT22;7454;51.256;8.176;2023-01-24T15:08:39;2.10;77.00
14727;DHT22;7454;51.256;8.176;2023-01-24T15:11:06;2.10;77.00
14727;DHT22;7454;51.256;8.176;2023-01-24T15:16:07;2.10;77.20
14727;DHT22;7454;51.256;8.176;2023-01-24T15:18:42;2.10;77.20
14727;DHT22;7454;51.256;8.176;2023-01-24T15:21:27;2.10;77.10
14727;DHT22;7454;51.256;8.176;2023-01-24T15:24:02;2.10;77.40
14727;DHT22;7454;51.256;8.176;2023-01-24T15:28:56;2.10;77.40
14727;DHT22;7454;51.256;8.176;2023-01-24T15:31:23;2.20;77.50
14727;DHT22;7454;51.256;8.176;2023-01-24T15:33:54;2.20;77.40
14727;DHT22;7454;51.256;8.176;2023-01-24T15:36:22;2.10;77.50
14727;DHT22;7454;51.256;8.176;2023-01-24T15:38:50;2.10;77.30
14727;DHT22;7454;51.256;8.176;2023-01-24T15:41:22;2.10;77.10
14727;DHT22;7454;51.256;8.176;2023-01-24T15:44:10;2.00;77.20
14727;DHT22;7454;51.256;8.176;2023-01-24T15:46:37;2.00;77.20
14727;DHT22;7454;51.256;8.176;2023-01-24T15:54:48;1.90;77.20
14727;DHT22;7454;51.256;8.176;2023-01-24T15:59:47;1.80;77.20
14727;DHT22;7454;51.256;8.176;2023-01-24T16:02:17;1.80;77.20
14727;DHT22;7454;51.256;8.176;2023-01-24T16:04:43;1.80;77.30
14727;DHT22;7454;51.256;8.176;2023-01-24T16:07:10;1.80;77.40
14727;DHT22;7454;51.256;8.176;2023-01-24T16:09:35;1.80;77.30
14727;DHT22;7454;51.256;8.176;2023-01-24T16:12:02;1.80;77.40
14727;DHT22;7454;51.256;8.176;2023-01-24T16:14:27;1.80;77.40
14727;DHT22;7454;51.256;8.176;2023-01-24T16:16:54;1.80;77.40
14727;DHT22;7454;51.256;8.176;2023-01-24T16:19:22;1.70;77.50
14727;DHT22;7454;51.256;8.176;2023-01-24T16:21:49;1.70;77.50
14727;DHT22;7454;51.256;8.176;2023-01-24T16:24:15;1.70;77.40
14727;DHT22;7454;51.256;8.176;2023-01-24T16:26:44;1.70;77.40
14727;DHT22;7454;51.256;8.176;2023-01-24T16:29:12;1.90;77.50
14727;DHT22;7454;51.256;8.176;2023-01-24T16:31:40;1.70;77.50
14727;DHT22;7454;51.256;8.176;2023-01-24T16:34:06;1.70;77.50
14727;DHT22;7454;51.256;8.176;2023-01-24T16:36:32;1.70;77.60
14727;DHT22;7454;51.256;8.176;2023-01-24T16:38:58;1.70;77.70
14727;DHT22;7454;51.256;8.176;2023-01-24T16:41:24;1.70;77.60
14727;DHT22;7454;51.256;8.176;2023-01-24T16:43:49;1.70;77.50
14727;DHT22;7454;51.256;8.176;2023-01-24T16:46:16;1.70;77.50
14727;DHT22;7454;51.256;8.176;2023-01-24T16:48:43;1.70;77.70
14727;DHT22;7454;51.256;8.176;2023-01-24T16:51:10;1.70;77.60
14727;DHT22;7454;51.256;8.176;2023-01-24T16:53:37;1.70;77.60
14727;DHT22;7454;51.256;8.176;2023-01-24T16:56:02;1.70;77.50
14727;DHT22;7454;51.256;8.176;2023-01-24T16:58:28;1.70;77.50
14727;DHT22;7454;51.256;8.176;2023-01-24T17:00:55;1.70;77.70
14727;DHT22;7454;51.256;8.176;2023-01-24T17:03:20;1.70;77.60
14727;DHT22;7454;51.256;8.176;2023-01-24T17:05:46;1.70;77.70
14727;DHT22;7454;51.256;8.176;2023-01-24T17:08:12;1.70;77.80
14727;DHT22;7454;51.256;8.176;2023-01-24T17:10:39;1.70;77.70
14727;DHT22;7454;51.256;8.176;2023-01-24T17:13:05;1.70;77.70
14727;DHT22;7454;51.256;8.176;2023-01-24T17:15:33;1.70;77.50
14727;DHT22;7454;51.256;8.176;2023-01-24T17:18:01;1.60;77.30
14727;DHT22;7454;51.256;8.176;2023-01-24T17:20:27;1.60;77.40
14727;DHT22;7454;51.256;8.176;2023-01-24T17:22:52;1.60;77.60
14727;DHT22;7454;51.256;8.176;2023-01-24T17:25:18;1.50;77.40
14727;DHT22;7454;51.256;8.176;2023-01-24T17:27:43;1.50;77.60
14727;DHT22;7454;51.256;8.176;2023-01-24T17:30:09;1.60;77.70
14727;DHT22;7454;51.256;8.176;2023-01-24T17:32:36;1.60;77.60
14727;DHT22;7454;51.256;8.176;2023-01-24T17:35:05;1.60;77.60
14727;DHT22;7454;51.256;8.176;2023-01-24T17:37:31;1.50;77.50
14727;DHT22;7454;51.256;8.176;2023-01-24T17:39:56;1.50;77.60
14727;DHT22;7454;51.256;8.176;2023-01-24T17:42:22;1.50;77.70
14727;DHT22;7454;51.256;8.176;2023-01-24T17:44:48;1.50;77.50
14727;DHT22;7454;51.256;8.176;2023-01-24T17:47:13;1.50;77.50
14727;DHT22;7454;51.256;8.176;2023-01-24T17:49:39;1.50;77.60
14727;DHT22;7454;51.256;8.176;2023-01-24T17:52:05;1.50;77.60
14727;DHT22;7454;51.256;8.176;2023-01-24T17:54:30;1.50;77.50
14727;DHT22;7454;51.256;8.176;2023-01-24T17:56:56;1.50;77.50
14727;DHT22;7454;51.256;8.176;2023-01-24T17:59:22;1.50;77.40
14727;DHT22;7454;51.256;8.176;2023-01-24T18:01:47;1.50;77.40
14727;DHT22;7454;51.256;8.176;2023-01-24T18:04:13;1.50;77.40
14727;DHT22;7454;51.256;8.176;2023-01-24T18:06:40;1.50;77.40